Terminal Aerodrome Forecast
Issued by NWS

Home | Current Version | Previous Version | Text Only | Print | Product List | Glossary On
Versions: 1 2 3 4 5 6 7 8 9 10 11 12 13 14 15 16 17 18 19 20 21 22 23 24 25 26 27
000
FTUS41 KOKX 120500
TAFTEB
TAF
KTEB 120528Z 1206/1306 00000KT P6SM FEW250
     FM121500 21006KT P6SM FEW050 SCT250
     FM121800 19010KT P6SM FEW050 SCT250
     FM130200 20005KT P6SM FEW150 BKN250=

USA.gov is the U.S. government's official web portal to all federal, state and local government web resources and services.